Bedford, WY (83112)

9:32 AM MDT on October 21, 2014 (GMT -0600)
RAWS B-T PORTABLE #1 WEINER RX WY US | Change Station
CLOSE
Current Station
Personal Weather Station
Location: Etna, WY
Elevation: 6622 ft
Nearby Weather Stations
Active Advisory: Special Statement

Elev 6622 ft 43.06 °N, 110.86 °W | Updated 41 minutes ago

Overcast
Overcast
39 °F
Feels Like 39 °F
N
2
Wind Variable Wind from SE
Gusts 6.0 mph

Today
High -- | Low -- °F
--% Chance of Precip.
Yesterday
High -- | Low -- °F
Precip. -- in
7:44 AM 6:31 PM
Waning Crescent, 5% visible
Pressure 29.98 in
Visibility 10.0 miles
Clouds Scattered Clouds 600 ft
Scattered Clouds 1200 ft
Mostly Cloudy 1900 ft
Windchill 39 °F
Dew Point 35 °F
Humidity 87%
Rainfall 0.00 in
Snow Depth 0 in
UV 1 out of 12
Pollen 3.10 out of 12
Air Quality Not available.
Flu Activity Sporadic
METAR KAFO 211515Z AUTO 15020G28KT 10SM -RA SCT006 SCT012 BKN019 08/05 A2998 RMK AO2

More Conditions Fewer Conditions

Pressure 29.98 in
Visibility 10.0 miles
Clouds Scattered Clouds 600 ft
Scattered Clouds 1200 ft
Mostly Cloudy 1900 ft
Windchill 39 °F
Dew Point 35 °F
Humidity 87%
Rainfall 0.00 in
Snow Depth 0 in
UV 1 out of 12
Pollen 3.10 out of 12
Air Quality Not available.
Flu Activity Sporadic
METAR KAFO 211515Z AUTO 15020G28KT 10SM -RA SCT006 SCT012 BKN019 08/05 A2998 RMK AO2

More Conditions Fewer Conditions

10-Day Weather Forecast

Almanac

Astronomy

Oct. 21, 2014 Rise Set
Actual Time 7:44 AM MDT 6:31 PM MDT
Civil Twilight 7:15 AM MDT 7:00 PM MDT
Nautical Twilight 6:42 AM MDT 7:33 PM MDT
Astronomical Twilight 6:09 AM MDT 8:06 PM MDT
Moon 5:28 AM MDT 5:29 PM MDT
Length of Visible Light 11h 44m
Length of Day
10h 47m
Tomorrow will be 2m 44s shorter.
Waning Crescent, 5% of the Moon is Illuminated
Today
Waning Crescent
Oct 23
New
Oct 30
First Quarter
Nov 6
Full
Nov 14
Last Quarter

Today's Extremes

State Highs State Lows

Community

WunderPhotos

Upload Photos

1,763,697 photos uploaded!

WunderBlogs® & News

Nearby

Snow Depth

Station Depth Elevation
Blind Bull Summit 0 in 8900 ft
Salt River Summit 1 in 7600 ft
Spring Creek Divide 0 in 9000 ft
Granite Creek 0 in 6770 ft
East Rim Divide 0 in 7930 ft

Earthquake Activity

City Distance Mag. Time & Date
No recent earthquake activity has been reported nearby.
Minimum magnitude displayed is 2.5.

Coastal Water Temperatures

Place Temperature
No Stations Reporting

Nearby Weather Stations